• Join FlightAware (Why Join?)
  • Login
  • US Flag 
11:35PM EDT


 

Airport Tracker/Info


-or-


 

Live Flight TrackerFlight Track Log ✈ TMC875 ✈ 16-Apr-2013 ✈ KOAK - KBZN

Flight Track Log - Related Links

Times and Time Zones

All times are in EDT time to prevent confusion due to time zone crossing. See the TMC875 flight status page for this flight to view local times or setup timezone preferences in your user account.

Time Position Orientation Groundspeed Altitude Reporting Facility
EDT Latitude Longitude Course Direction KTS MPH feet Rate Location/Type
02:06PM 37.7333 -122.2667 345° North 207 238 2,300  Level Northern Cal TRACON
02:07PM 37.7833 -122.2833 345° North 231 266 7,300 4,620 Climbing Northern Cal TRACON
02:08PM 37.8006 -122.2622 44° Northeast 222 255 9,100 3,960 Climbing Oakland Center
02:09PM 37.8519 -122.2050 41° Northeast 242 278 13,200 3,960 Climbing Oakland Center
02:10PM 37.9094 -122.1433 40° Northeast 268 308 17,300 3,360 Climbing Oakland Center
02:11PM 37.9675 -122.0783 41° Northeast 279 321 20,200 3,120 Climbing Oakland Center
02:12PM 38.0428 -121.9964 41° Northeast 297 342 23,700 3,120 Climbing Oakland Center
02:13PM 38.1106 -121.9431 32° Northeast 290 334 26,700 2,460 Climbing Oakland Center
02:14PM 38.1769 -121.8908 32° Northeast 283 326 28,800 1,500 Climbing Oakland Center
02:15PM 38.2511 -121.8275 34° Northeast 316 364 29,800 1,140 Climbing Oakland Center
02:16PM 38.3333 -121.7594 33° Northeast 349 402 31,200 1,260 Climbing Oakland Center
02:17PM 38.4281 -121.6786 34° Northeast 368 423 32,400 1,020 Climbing Oakland Center
02:18PM 38.5203 -121.6000 34° Northeast 392 451 33,300 840 Climbing Oakland Center
02:19PM 38.6153 -121.5208 33° Northeast 402 463 34,200 900 Climbing Oakland Center
02:20PM 38.7128 -121.4375 34° Northeast 412 474 35,200 1,020 Climbing Oakland Center
02:21PM 38.8094 -121.3550 34° Northeast 411 473 36,300 1,020 Climbing Oakland Center
02:22PM 38.9031 -121.2744 34° Northeast 403 464 37,400 960 Climbing Oakland Center
02:23PM 38.9947 -121.1975 33° Northeast 394 453 38,300 660 Climbing Oakland Center
02:24PM 39.0864 -121.1142 35° Northeast 398 458 38,800 480 Climbing Oakland Center
02:25PM 39.1803 -121.0328 34° Northeast 403 464 39,300 480 Climbing Oakland Center
02:26PM 39.2747 -120.9519 34° Northeast 407 468 39,800 480 Climbing Oakland Center
02:27PM 39.3683 -120.8681 35° Northeast 408 470 40,300 480 Climbing Oakland Center
02:28PM 39.4608 -120.7861 34° Northeast 406 467 40,800 300 Climbing Oakland Center
02:29PM 39.5719 -120.6878 34° Northeast 403 464 41,000 60 Climbing Oakland Center
02:30PM 39.6683 -120.6067 33° Northeast 409 471 41,000  Level Oakland Center
02:31PM 39.7639 -120.5183 35° Northeast 420 483 41,000  Level Oakland Center
02:32PM 39.8619 -120.4317 34° Northeast 430 495 41,000  Level Oakland Center
02:33PM 39.9611 -120.3439 34° Northeast 432 497 41,000  Level Oakland Center
02:34PM 40.0589 -120.2553 35° Northeast 432 497 41,000  Level Oakland Center
02:35PM 40.1597 -120.1636 35° Northeast 438 504 41,000  Level Oakland Center
02:36PM 40.2600 -120.0733 34° Northeast 438 504 41,000  Level Oakland Center
02:37PM 40.3625 -119.9822 34° Northeast 443 510 41,000  Level Oakland Center
02:38PM 40.4814 -119.8744 35° Northeast 434 499 41,000  Level Oakland Center
02:39PM 40.5633 -119.7986 35° Northeast 434 499 41,000  Level Oakland Center
02:40PM 40.6639 -119.7069 35° Northeast 436 502 41,000  Level Oakland Center
02:41PM 40.7836 -119.5972 35° Northeast 437 503 41,000  Level Oakland Center
02:42PM 40.8758 -119.5111 35° Northeast 436 502 41,000  Level Oakland Center
02:43PM 40.9883 -119.4061 35° Northeast 439 505 41,000  Level Oakland Center
02:44PM 41.0856 -119.3158 35° Northeast 442 509 41,000  Level Salt Lake Center
02:45PM 41.1831 -119.2244 35° Northeast 444 511 41,000  Level Salt Lake Center
02:47PM 41.2794 -119.1333 35° Northeast 445 512 41,000  Level Salt Lake Center
02:48PM 41.3925 -119.0272 35° Northeast 444 511 41,000  Level Salt Lake Center
02:49PM 41.4883 -118.9369 35° Northeast 442 509 41,000  Level Salt Lake Center
02:50PM 41.6000 -118.8314 35° Northeast 441 507 41,000  Level Salt Lake Center
02:51PM 41.6964 -118.7383 36° Northeast 443 510 41,000  Level Salt Lake Center
02:52PM 41.7922 -118.6469 35° Northeast 441 507 41,000  Level Salt Lake Center
02:53PM 41.9039 -118.5392 36° Northeast 440 506 41,000  Level Salt Lake Center
02:54PM 42.0011 -118.4461 35° Northeast 444 511 41,000  Level Salt Lake Center
02:55PM 42.1133 -118.3364 36° Northeast 445 512 41,000  Level Salt Lake Center
02:56PM 42.2100 -118.2425 36° Northeast 446 513 41,000  Level Salt Lake Center
02:57PM 42.3081 -118.1481 35° Northeast 450 518 41,000  Level Salt Lake Center
02:58PM 42.4214 -118.0319 37° Northeast 451 519 41,000  Level Salt Lake Center
02:59PM 42.5161 -117.9344 37° Northeast 448 516 41,000  Level Salt Lake Center
03:00PM 42.6194 -117.8056 43° Northeast 457 526 41,000  Level Salt Lake Center
03:01PM 42.6911 -117.6722 54° Northeast 458 527 41,000  Level Salt Lake Center
03:02PM 42.7625 -117.5389 54° Northeast 456 525 41,000  Level Salt Lake Center
03:03PM 42.8450 -117.3814 54° Northeast 456 525 41,000  Level Salt Lake Center
03:04PM 42.9156 -117.2464 54° Northeast 457 526 41,000  Level Salt Lake Center
03:05PM 42.9978 -117.0889 54° Northeast 456 525 41,000  Level Salt Lake Center
03:06PM 43.0681 -116.9508 55° Northeast 462 532 41,000  Level Salt Lake Center
03:07PM 43.1508 -116.7925 54° Northeast 459 528 41,000  Level Salt Lake Center
03:08PM 43.2217 -116.6544 55° Northeast 462 532 41,000  Level Salt Lake Center
03:09PM 43.2922 -116.5175 55° Northeast 461 531 41,000  Level Salt Lake Center
03:10PM 43.3736 -116.3561 55° Northeast 460 529 41,000  Level Salt Lake Center
03:11PM 43.4436 -116.2178 55° Northeast 460 529 41,000  Level Salt Lake Center
03:12PM 43.5247 -116.0581 55° Northeast 457 526 41,000  Level Salt Lake Center
03:13PM 43.5947 -115.9194 55° Northeast 462 532 41,000  Level Salt Lake Center
03:14PM 43.6750 -115.7583 55° Northeast 459 528 41,000  Level Salt Lake Center
03:15PM 43.7439 -115.6192 56° Northeast 461 531 41,000  Level Salt Lake Center
03:16PM 43.8114 -115.4814 56° Northeast 455 524 41,000  Level Salt Lake Center
03:17PM 43.8911 -115.3192 56° Northeast 457 526 41,000  Level Salt Lake Center
03:19PM 43.9665 -115.1593 57° Northeast  Level FlightAware Approximate
03:19PM 44.0386 -115.0150 57° Northeast 458 527 41,000  Level Salt Lake Center
03:20PM 44.1078 -114.8744 56° Northeast 459 528 41,000  Level Salt Lake Center
03:21PM 44.1864 -114.7089 56° Northeast 461 531 41,000  Level Salt Lake Center
03:22PM 44.2544 -114.5653 56° Northeast 462 532 41,000  Level Salt Lake Center
03:23PM 44.3347 -114.3986 56° Northeast 464 534 41,000  Level Salt Lake Center
03:24PM 44.3992 -114.2553 58° Northeast 460 529 41,000  Level Salt Lake Center
03:26PM 44.4689 -114.1106 56° Northeast 466 536 41,000  Level Salt Lake Center
03:27PM 44.5492 -113.9414 56° Northeast 468 539 41,000 -120 Level Salt Lake Center
03:28PM 44.6153 -113.7925 58° Northeast 465 535 40,800 -600 Descending Salt Lake Center
03:29PM 44.6969 -113.6200 56° Northeast 472 543 39,800 -1,200 Descending Salt Lake Center
03:30PM 44.7653 -113.4703 57° Northeast 474 545 38,400 -1,380 Descending Salt Lake Center
03:31PM 44.8317 -113.3247 57° Northeast 464 534 37,000 -1,500 Descending Salt Lake Center
03:32PM 44.9083 -113.1550 57° Northeast 460 529 35,400 -1,440 Descending Salt Lake Center
03:33PM 44.9725 -113.0114 58° Northeast 453 521 34,100 -1,440 Descending Salt Lake Center
03:34PM 45.0464 -112.8481 57° Northeast 443 510 32,500 -1,500 Descending Salt Lake Center
03:35PM 45.1092 -112.7069 58° Northeast 442 509 31,100 -1,800 Descending Salt Lake Center
03:36PM 45.1722 -112.5672 57° Northeast 440 506 28,900 -2,400 Descending Salt Lake Center
03:37PM 45.2422 -112.4078 58° Northeast 429 494 26,200 -2,520 Descending Salt Lake Center
03:38PM 45.3008 -112.2772 57° Northeast 418 481 23,800 -2,580 Descending Salt Lake Center
03:39PM 45.3669 -112.1425 55° Northeast 373 429 21,000 -2,580 Descending Salt Lake Center
03:40PM 45.4169 -112.0333 57° Northeast 351 404 18,600 -2,340 Descending Salt Lake Center
03:41PM 45.4647 -111.9228 58° Northeast 334 384 16,300 -2,400 Descending Salt Lake Center
03:42PM 45.5097 -111.8200 58° Northeast 315 362 13,800 -1,620 Descending Salt Lake Center
03:43PM 45.5506 -111.7297 57° Northeast 284 327 13,000 -1,020 Descending Salt Lake Center
03:44PM 45.5858 -111.6444 59° Northeast 257 296 11,800 -1,020 Descending Salt Lake Center
03:45PM 45.6222 -111.5594 59° Northeast 254 292 11,000 -420 Descending Salt Lake Center
03:46PM 45.6686 -111.4850 48° Northeast 229 264 11,000 -240 Level Salt Lake Center
03:47PM 45.7269 -111.5058 346° North 223 257 10,600 -1,080 Descending Salt Lake Center
03:48PM 45.7900 -111.5136 355° North 224 258 8,900 -1,320 Descending Salt Lake Center
03:49PM 45.8508 -111.5033 North 222 255 7,900 -480 Descending Salt Lake Center
03:50PM 45.8972 -111.4767 22° Northeast 194 223 8,000  Climbing Salt Lake Center
03:51PM 45.9403 -111.4361 33° Northeast 185 213 7,900  Descending Salt Lake Center
03:52PM 45.9328 -111.3694 99° East 193 222 8,000 -240 Climbing Salt Lake Center
03:53PM 45.8978 -111.3208 136° Southeast 183 211 7,500 -720 Descending Salt Lake Center
03:54PM 45.8647 -111.2744 136° Southeast 175 201 6,600 -900 Descending Salt Lake Center
03:55PM 45.8347 -111.2328 136° Southeast 163 188 5,700 -780 Descending Salt Lake Center
03:56PM 45.8086 -111.1958 135° Southeast 147 169 5,100 -660 Descending Salt Lake Center
03:57PM 45.7789 -111.1542 136° Southeast 143 165 4,400 -720 Descending Salt Lake Center